sensor_id;sensor_type;location;lat;lon;timestamp;temperature;humidity
44775;DHT22;31340;51.402;0.016;2024-02-23T00:02:23;5.90;99.90
44775;DHT22;31340;51.402;0.016;2024-02-23T00:04:52;5.90;99.90
44775;DHT22;31340;51.402;0.016;2024-02-23T00:07:20;5.90;99.90
44775;DHT22;31340;51.402;0.016;2024-02-23T00:09:48;5.80;99.90
44775;DHT22;31340;51.402;0.016;2024-02-23T00:12:15;5.80;99.90
44775;DHT22;31340;51.402;0.016;2024-02-23T00:14:43;5.80;99.90
44775;DHT22;31340;51.402;0.016;2024-02-23T00:17:11;5.90;99.90
44775;DHT22;31340;51.402;0.016;2024-02-23T00:19:39;5.80;99.90
44775;DHT22;31340;51.402;0.016;2024-02-23T00:22:07;5.90;99.90
44775;DHT22;31340;51.402;0.016;2024-02-23T00:24:35;5.90;99.90
44775;DHT22;31340;51.402;0.016;2024-02-23T00:27:04;5.80;99.90
44775;DHT22;31340;51.402;0.016;2024-02-23T00:29:31;5.90;99.90
44775;DHT22;31340;51.402;0.016;2024-02-23T00:31:59;5.90;99.90
44775;DHT22;31340;51.402;0.016;2024-02-23T00:34:27;5.90;99.90
44775;DHT22;31340;51.402;0.016;2024-02-23T00:36:54;5.90;99.90
44775;DHT22;31340;51.402;0.016;2024-02-23T00:39:22;5.90;99.90
44775;DHT22;31340;51.402;0.016;2024-02-23T00:41:50;5.90;99.90
44775;DHT22;31340;51.402;0.016;2024-02-23T00:44:17;5.90;99.90
44775;DHT22;31340;51.402;0.016;2024-02-23T00:46:45;5.90;99.90
44775;DHT22;31340;51.402;0.016;2024-02-23T00:49:13;5.90;99.90
44775;DHT22;31340;51.402;0.016;2024-02-23T00:51:41;5.90;99.90
44775;DHT22;31340;51.402;0.016;2024-02-23T00:54:08;5.90;99.90
44775;DHT22;31340;51.402;0.016;2024-02-23T00:56:36;5.90;99.90
44775;DHT22;31340;51.402;0.016;2024-02-23T00:59:17;5.90;99.90
44775;DHT22;31340;51.402;0.016;2024-02-23T01:01:45;5.90;99.90
44775;DHT22;31340;51.402;0.016;2024-02-23T01:04:13;5.90;99.90
44775;DHT22;31340;51.402;0.016;2024-02-23T01:06:42;6.00;99.90
44775;DHT22;31340;51.402;0.016;2024-02-23T01:09:10;6.00;99.90
44775;DHT22;31340;51.402;0.016;2024-02-23T01:11:37;6.00;99.90
44775;DHT22;31340;51.402;0.016;2024-02-23T01:14:05;6.00;99.90
44775;DHT22;31340;51.402;0.016;2024-02-23T01:16:34;6.00;99.90
44775;DHT22;31340;51.402;0.016;2024-02-23T01:19:01;6.00;99.90
44775;DHT22;31340;51.402;0.016;2024-02-23T01:21:30;6.00;99.90
44775;DHT22;31340;51.402;0.016;2024-02-23T01:23:58;6.00;99.90
44775;DHT22;31340;51.402;0.016;2024-02-23T01:26:28;6.00;99.90
44775;DHT22;31340;51.402;0.016;2024-02-23T01:28:55;6.00;99.90
44775;DHT22;31340;51.402;0.016;2024-02-23T01:31:24;6.00;99.90
44775;DHT22;31340;51.402;0.016;2024-02-23T01:33:51;6.00;99.90
44775;DHT22;31340;51.402;0.016;2024-02-23T01:36:19;6.10;99.90
44775;DHT22;31340;51.402;0.016;2024-02-23T01:38:47;6.00;99.90
44775;DHT22;31340;51.402;0.016;2024-02-23T01:41:14;6.00;99.90
44775;DHT22;31340;51.402;0.016;2024-02-23T01:43:42;6.10;99.90
44775;DHT22;31340;51.402;0.016;2024-02-23T01:46:10;6.10;99.90
44775;DHT22;31340;51.402;0.016;2024-02-23T01:48:38;6.00;99.90
44775;DHT22;31340;51.402;0.016;2024-02-23T01:51:07;6.00;99.90
44775;DHT22;31340;51.402;0.016;2024-02-23T01:53:34;6.00;99.90
44775;DHT22;31340;51.402;0.016;2024-02-23T01:56:05;6.00;99.90
44775;DHT22;31340;51.402;0.016;2024-02-23T01:58:35;6.00;99.90
44775;DHT22;31340;51.402;0.016;2024-02-23T02:01:05;6.00;99.90
44775;DHT22;31340;51.402;0.016;2024-02-23T02:03:35;6.00;99.90
44775;DHT22;31340;51.402;0.016;2024-02-23T02:06:07;6.00;99.90
44775;DHT22;31340;51.402;0.016;2024-02-23T02:08:36;6.00;99.90
44775;DHT22;31340;51.402;0.016;2024-02-23T02:11:04;6.00;99.90
44775;DHT22;31340;51.402;0.016;2024-02-23T02:13:32;6.00;99.90
44775;DHT22;31340;51.402;0.016;2024-02-23T02:16:00;6.00;99.90
44775;DHT22;31340;51.402;0.016;2024-02-23T02:18:28;6.00;99.90
44775;DHT22;31340;51.402;0.016;2024-02-23T02:20:57;6.00;99.90
44775;DHT22;31340;51.402;0.016;2024-02-23T02:23:25;6.00;99.90
44775;DHT22;31340;51.402;0.016;2024-02-23T02:25:56;6.00;99.90
44775;DHT22;31340;51.402;0.016;2024-02-23T02:28:25;6.00;99.90
44775;DHT22;31340;51.402;0.016;2024-02-23T02:30:53;6.00;99.90
44775;DHT22;31340;51.402;0.016;2024-02-23T02:33:21;6.00;99.90
44775;DHT22;31340;51.402;0.016;2024-02-23T02:35:49;6.00;99.90
44775;DHT22;31340;51.402;0.016;2024-02-23T02:38:19;6.00;99.90
44775;DHT22;31340;51.402;0.016;2024-02-23T02:40:47;6.00;99.90
44775;DHT22;31340;51.402;0.016;2024-02-23T02:43:15;6.00;99.90
44775;DHT22;31340;51.402;0.016;2024-02-23T02:45:42;6.10;99.90
44775;DHT22;31340;51.402;0.016;2024-02-23T02:48:11;6.00;99.90
44775;DHT22;31340;51.402;0.016;2024-02-23T02:50:41;6.00;99.90
44775;DHT22;31340;51.402;0.016;2024-02-23T02:53:09;6.00;99.90
44775;DHT22;31340;51.402;0.016;2024-02-23T02:55:41;6.00;99.90
44775;DHT22;31340;51.402;0.016;2024-02-23T02:58:11;6.00;99.90
44775;DHT22;31340;51.402;0.016;2024-02-23T03:00:40;6.00;99.90
44775;DHT22;31340;51.402;0.016;2024-02-23T03:03:07;6.00;99.90
44775;DHT22;31340;51.402;0.016;2024-02-23T03:05:35;6.10;99.90
44775;DHT22;31340;51.402;0.016;2024-02-23T03:08:03;6.10;99.90
44775;DHT22;31340;51.402;0.016;2024-02-23T03:10:31;6.10;99.90
44775;DHT22;31340;51.402;0.016;2024-02-23T03:13:00;6.10;99.90
44775;DHT22;31340;51.402;0.016;2024-02-23T03:15:28;6.20;99.90
44775;DHT22;31340;51.402;0.016;2024-02-23T03:17:55;6.20;99.90
44775;DHT22;31340;51.402;0.016;2024-02-23T03:20:23;6.20;99.90
44775;DHT22;31340;51.402;0.016;2024-02-23T03:22:51;6.20;99.90
44775;DHT22;31340;51.402;0.016;2024-02-23T03:25:18;6.30;99.90
44775;DHT22;31340;51.402;0.016;2024-02-23T03:27:46;6.30;99.90
44775;DHT22;31340;51.402;0.016;2024-02-23T03:30:14;6.30;99.90
44775;DHT22;31340;51.402;0.016;2024-02-23T03:32:42;6.40;99.90
44775;DHT22;31340;51.402;0.016;2024-02-23T03:35:10;6.40;99.90
44775;DHT22;31340;51.402;0.016;2024-02-23T03:37:37;6.40;99.90
44775;DHT22;31340;51.402;0.016;2024-02-23T03:40:06;6.40;99.90
44775;DHT22;31340;51.402;0.016;2024-02-23T03:42:33;6.40;99.90
44775;DHT22;31340;51.402;0.016;2024-02-23T03:45:01;6.40;99.90
44775;DHT22;31340;51.402;0.016;2024-02-23T03:47:28;6.40;99.90
44775;DHT22;31340;51.402;0.016;2024-02-23T03:49:56;6.50;99.90
44775;DHT22;31340;51.402;0.016;2024-02-23T03:52:24;6.40;99.90
44775;DHT22;31340;51.402;0.016;2024-02-23T03:54:52;6.40;99.90
44775;DHT22;31340;51.402;0.016;2024-02-23T03:57:21;6.40;99.90
44775;DHT22;31340;51.402;0.016;2024-02-23T03:59:53;6.40;99.90
44775;DHT22;31340;51.402;0.016;2024-02-23T04:02:21;6.40;99.90
44775;DHT22;31340;51.402;0.016;2024-02-23T04:04:49;6.40;99.90
44775;DHT22;31340;51.402;0.016;2024-02-23T04:07:18;6.40;99.90
44775;DHT22;31340;51.402;0.016;2024-02-23T04:09:45;6.40;99.90
44775;DHT22;31340;51.402;0.016;2024-02-23T04:12:19;6.40;99.90
44775;DHT22;31340;51.402;0.016;2024-02-23T04:14:47;6.40;99.90
44775;DHT22;31340;51.402;0.016;2024-02-23T04:17:15;6.40;99.90
44775;DHT22;31340;51.402;0.016;2024-02-23T04:19:45;6.40;99.90
44775;DHT22;31340;51.402;0.016;2024-02-23T04:22:12;6.40;99.90
44775;DHT22;31340;51.402;0.016;2024-02-23T04:24:41;6.40;99.90
44775;DHT22;31340;51.402;0.016;2024-02-23T04:27:09;6.40;99.90
44775;DHT22;31340;51.402;0.016;2024-02-23T04:29:37;6.40;99.90
44775;DHT22;31340;51.402;0.016;2024-02-23T04:32:05;6.40;99.90
44775;DHT22;31340;51.402;0.016;2024-02-23T04:34:32;6.40;99.90
44775;DHT22;31340;51.402;0.016;2024-02-23T04:37:00;6.40;99.90
44775;DHT22;31340;51.402;0.016;2024-02-23T04:39:28;6.40;99.90
44775;DHT22;31340;51.402;0.016;2024-02-23T04:41:55;6.40;99.90
44775;DHT22;31340;51.402;0.016;2024-02-23T04:44:23;6.50;99.90
44775;DHT22;31340;51.402;0.016;2024-02-23T04:46:51;6.50;99.90
44775;DHT22;31340;51.402;0.016;2024-02-23T04:49:18;6.60;99.90
44775;DHT22;31340;51.402;0.016;2024-02-23T04:51:46;6.60;99.90
44775;DHT22;31340;51.402;0.016;2024-02-23T04:54:13;6.60;99.90
44775;DHT22;31340;51.402;0.016;2024-02-23T04:56:41;6.60;99.90
44775;DHT22;31340;51.402;0.016;2024-02-23T04:59:08;6.70;99.90
44775;DHT22;31340;51.402;0.016;2024-02-23T05:01:37;6.70;99.90
44775;DHT22;31340;51.402;0.016;2024-02-23T05:04:05;6.70;99.90
44775;DHT22;31340;51.402;0.016;2024-02-23T05:06:32;6.80;99.90
44775;DHT22;31340;51.402;0.016;2024-02-23T05:09:00;6.80;99.90
44775;DHT22;31340;51.402;0.016;2024-02-23T05:11:28;6.90;99.90
44775;DHT22;31340;51.402;0.016;2024-02-23T05:13:56;6.90;99.90
44775;DHT22;31340;51.402;0.016;2024-02-23T05:16:24;6.90;99.90
44775;DHT22;31340;51.402;0.016;2024-02-23T05:18:51;6.90;99.90
44775;DHT22;31340;51.402;0.016;2024-02-23T05:21:20;6.90;99.90
44775;DHT22;31340;51.402;0.016;2024-02-23T05:23:47;6.90;99.90
44775;DHT22;31340;51.402;0.016;2024-02-23T05:26:15;7.00;99.90
44775;DHT22;31340;51.402;0.016;2024-02-23T05:28:43;6.90;99.90
44775;DHT22;31340;51.402;0.016;2024-02-23T05:31:10;7.00;99.90
44775;DHT22;31340;51.402;0.016;2024-02-23T05:33:37;7.00;99.90
44775;DHT22;31340;51.402;0.016;2024-02-23T05:36:06;7.00;99.90
44775;DHT22;31340;51.402;0.016;2024-02-23T05:38:34;7.00;99.90
44775;DHT22;31340;51.402;0.016;2024-02-23T05:41:02;7.00;99.90
44775;DHT22;31340;51.402;0.016;2024-02-23T05:43:29;7.00;99.90
44775;DHT22;31340;51.402;0.016;2024-02-23T05:45:57;7.00;99.90
44775;DHT22;31340;51.402;0.016;2024-02-23T05:48:26;7.00;99.90
44775;DHT22;31340;51.402;0.016;2024-02-23T05:50:54;7.00;99.90
44775;DHT22;31340;51.402;0.016;2024-02-23T05:53:21;7.00;99.90
44775;DHT22;31340;51.402;0.016;2024-02-23T05:55:49;7.00;99.90
44775;DHT22;31340;51.402;0.016;2024-02-23T05:58:16;7.00;99.90
44775;DHT22;31340;51.402;0.016;2024-02-23T06:00:44;7.00;99.90
44775;DHT22;31340;51.402;0.016;2024-02-23T06:03:12;7.00;99.90
44775;DHT22;31340;51.402;0.016;2024-02-23T06:05:40;7.00;99.90
44775;DHT22;31340;51.402;0.016;2024-02-23T06:08:08;7.00;99.90
44775;DHT22;31340;51.402;0.016;2024-02-23T06:10:35;7.00;99.90
44775;DHT22;31340;51.402;0.016;2024-02-23T06:13:05;6.90;99.90
44775;DHT22;31340;51.402;0.016;2024-02-23T06:15:32;6.90;99.90
44775;DHT22;31340;51.402;0.016;2024-02-23T06:18:00;6.90;99.90
44775;DHT22;31340;51.402;0.016;2024-02-23T06:20:29;6.90;99.90
44775;DHT22;31340;51.402;0.016;2024-02-23T06:22:57;6.90;99.90
44775;DHT22;31340;51.402;0.016;2024-02-23T06:25:24;6.80;99.90
44775;DHT22;31340;51.402;0.016;2024-02-23T06:27:52;6.80;99.90
44775;DHT22;31340;51.402;0.016;2024-02-23T06:30:20;6.80;99.90
44775;DHT22;31340;51.402;0.016;2024-02-23T06:32:49;6.80;99.90
44775;DHT22;31340;51.402;0.016;2024-02-23T06:35:17;6.70;99.90
44775;DHT22;31340;51.402;0.016;2024-02-23T06:37:46;6.70;99.90
44775;DHT22;31340;51.402;0.016;2024-02-23T06:40:14;6.70;99.90
44775;DHT22;31340;51.402;0.016;2024-02-23T06:42:41;6.70;99.90
44775;DHT22;31340;51.402;0.016;2024-02-23T06:45:09;6.70;99.90
44775;DHT22;31340;51.402;0.016;2024-02-23T06:47:37;6.70;99.90
44775;DHT22;31340;51.402;0.016;2024-02-23T06:50:07;6.70;99.90
44775;DHT22;31340;51.402;0.016;2024-02-23T06:52:36;6.70;99.90
44775;DHT22;31340;51.402;0.016;2024-02-23T06:55:05;6.60;99.90
44775;DHT22;31340;51.402;0.016;2024-02-23T06:57:32;6.60;99.90
44775;DHT22;31340;51.402;0.016;2024-02-23T07:00:00;6.60;99.90
44775;DHT22;31340;51.402;0.016;2024-02-23T07:02:28;6.60;99.90
44775;DHT22;31340;51.402;0.016;2024-02-23T07:04:59;6.60;99.90
44775;DHT22;31340;51.402;0.016;2024-02-23T07:07:27;6.50;99.90
44775;DHT22;31340;51.402;0.016;2024-02-23T07:09:56;6.50;99.90
44775;DHT22;31340;51.402;0.016;2024-02-23T07:12:24;6.50;99.90
44775;DHT22;31340;51.402;0.016;2024-02-23T07:14:53;6.50;99.90
44775;DHT22;31340;51.402;0.016;2024-02-23T07:17:21;6.50;99.90
44775;DHT22;31340;51.402;0.016;2024-02-23T07:19:48;6.40;99.90
44775;DHT22;31340;51.402;0.016;2024-02-23T07:22:18;6.40;99.90
44775;DHT22;31340;51.402;0.016;2024-02-23T07:24:46;6.40;99.90
44775;DHT22;31340;51.402;0.016;2024-02-23T07:27:15;6.40;99.90
44775;DHT22;31340;51.402;0.016;2024-02-23T07:29:43;6.50;99.90
44775;DHT22;31340;51.402;0.016;2024-02-23T07:32:11;6.50;99.90
44775;DHT22;31340;51.402;0.016;2024-02-23T07:34:39;6.40;99.90
44775;DHT22;31340;51.402;0.016;2024-02-23T07:37:07;6.50;99.90
44775;DHT22;31340;51.402;0.016;2024-02-23T07:39:35;6.50;99.90
44775;DHT22;31340;51.402;0.016;2024-02-23T07:42:02;6.50;99.90
44775;DHT22;31340;51.402;0.016;2024-02-23T07:44:30;6.50;99.90
44775;DHT22;31340;51.402;0.016;2024-02-23T07:46:58;6.50;99.90
44775;DHT22;31340;51.402;0.016;2024-02-23T07:49:26;6.50;99.90
44775;DHT22;31340;51.402;0.016;2024-02-23T07:51:55;6.50;99.90
44775;DHT22;31340;51.402;0.016;2024-02-23T07:54:23;6.50;99.90
44775;DHT22;31340;51.402;0.016;2024-02-23T07:56:51;6.50;99.90
44775;DHT22;31340;51.402;0.016;2024-02-23T07:59:18;6.60;99.90
44775;DHT22;31340;51.402;0.016;2024-02-23T08:01:47;6.60;99.90
44775;DHT22;31340;51.402;0.016;2024-02-23T08:04:14;6.60;99.90
44775;DHT22;31340;51.402;0.016;2024-02-23T08:06:43;6.60;99.90
44775;DHT22;31340;51.402;0.016;2024-02-23T08:09:12;6.60;99.90
44775;DHT22;31340;51.402;0.016;2024-02-23T08:11:39;6.60;99.90
44775;DHT22;31340;51.402;0.016;2024-02-23T08:14:07;6.60;99.90
44775;DHT22;31340;51.402;0.016;2024-02-23T08:16:35;6.70;99.90
44775;DHT22;31340;51.402;0.016;2024-02-23T08:19:03;6.70;99.90
44775;DHT22;31340;51.402;0.016;2024-02-23T08:21:31;6.70;99.90
44775;DHT22;31340;51.402;0.016;2024-02-23T08:23:58;6.80;99.90
44775;DHT22;31340;51.402;0.016;2024-02-23T08:26:26;6.80;99.90
44775;DHT22;31340;51.402;0.016;2024-02-23T08:28:54;6.90;99.90
44775;DHT22;31340;51.402;0.016;2024-02-23T08:31:22;6.90;99.90
44775;DHT22;31340;51.402;0.016;2024-02-23T08:33:50;7.00;99.90
44775;DHT22;31340;51.402;0.016;2024-02-23T08:36:18;7.00;99.90
44775;DHT22;31340;51.402;0.016;2024-02-23T08:38:47;7.10;99.90
44775;DHT22;31340;51.402;0.016;2024-02-23T08:41:14;7.10;99.90
44775;DHT22;31340;51.402;0.016;2024-02-23T08:43:42;7.10;99.90
44775;DHT22;31340;51.402;0.016;2024-02-23T08:46:10;7.20;99.90
44775;DHT22;31340;51.402;0.016;2024-02-23T08:48:38;7.30;99.90
44775;DHT22;31340;51.402;0.016;2024-02-23T08:51:06;7.30;99.90
44775;DHT22;31340;51.402;0.016;2024-02-23T08:53:33;7.40;99.90
44775;DHT22;31340;51.402;0.016;2024-02-23T08:56:01;7.40;99.90
44775;DHT22;31340;51.402;0.016;2024-02-23T08:58:29;7.40;99.90
44775;DHT22;31340;51.402;0.016;2024-02-23T09:00:56;7.50;99.90
44775;DHT22;31340;51.402;0.016;2024-02-23T09:03:24;7.50;99.90
44775;DHT22;31340;51.402;0.016;2024-02-23T09:05:52;7.60;99.90
44775;DHT22;31340;51.402;0.016;2024-02-23T09:08:19;7.70;99.90
44775;DHT22;31340;51.402;0.016;2024-02-23T09:10:47;7.70;99.90
44775;DHT22;31340;51.402;0.016;2024-02-23T09:13:15;7.80;99.90
44775;DHT22;31340;51.402;0.016;2024-02-23T09:15:43;7.90;99.90
44775;DHT22;31340;51.402;0.016;2024-02-23T09:18:11;7.90;99.90
44775;DHT22;31340;51.402;0.016;2024-02-23T09:20:39;8.00;99.90
44775;DHT22;31340;51.402;0.016;2024-02-23T09:23:07;8.10;99.90
44775;DHT22;31340;51.402;0.016;2024-02-23T09:25:34;8.10;99.90
44775;DHT22;31340;51.402;0.016;2024-02-23T09:28:02;8.20;99.90
44775;DHT22;31340;51.402;0.016;2024-02-23T09:30:30;8.20;99.90
44775;DHT22;31340;51.402;0.016;2024-02-23T09:32:57;8.30;99.90
44775;DHT22;31340;51.402;0.016;2024-02-23T09:35:25;8.40;99.90
44775;DHT22;31340;51.402;0.016;2024-02-23T09:37:53;8.40;99.90
44775;DHT22;31340;51.402;0.016;2024-02-23T09:40:21;8.50;99.90
44775;DHT22;31340;51.402;0.016;2024-02-23T09:42:58;8.50;99.90
44775;DHT22;31340;51.402;0.016;2024-02-23T09:45:26;8.60;99.90
44775;DHT22;31340;51.402;0.016;2024-02-23T09:47:56;8.60;99.90
44775;DHT22;31340;51.402;0.016;2024-02-23T09:50:28;8.70;99.90
44775;DHT22;31340;51.402;0.016;2024-02-23T09:52:58;8.70;99.90
44775;DHT22;31340;51.402;0.016;2024-02-23T09:55:26;8.80;99.90
44775;DHT22;31340;51.402;0.016;2024-02-23T09:57:57;8.80;99.90
44775;DHT22;31340;51.402;0.016;2024-02-23T10:00:27;8.90;99.90
44775;DHT22;31340;51.402;0.016;2024-02-23T10:02:56;8.90;99.90
44775;DHT22;31340;51.402;0.016;2024-02-23T10:05:29;8.90;99.90
44775;DHT22;31340;51.402;0.016;2024-02-23T10:08:03;9.00;99.90
44775;DHT22;31340;51.402;0.016;2024-02-23T10:10:34;9.00;99.90
44775;DHT22;31340;51.402;0.016;2024-02-23T10:13:05;9.10;99.90
44775;DHT22;31340;51.402;0.016;2024-02-23T10:15:33;9.10;99.90
44775;DHT22;31340;51.402;0.016;2024-02-23T10:18:00;9.10;99.90
44775;DHT22;31340;51.402;0.016;2024-02-23T10:20:29;9.20;99.90
44775;DHT22;31340;51.402;0.016;2024-02-23T10:22:57;9.20;99.90
44775;DHT22;31340;51.402;0.016;2024-02-23T10:25:25;9.30;99.90
44775;DHT22;31340;51.402;0.016;2024-02-23T10:27:52;9.30;99.90
44775;DHT22;31340;51.402;0.016;2024-02-23T10:30:20;9.40;99.90
44775;DHT22;31340;51.402;0.016;2024-02-23T10:32:50;9.50;99.90
44775;DHT22;31340;51.402;0.016;2024-02-23T10:35:22;9.50;99.90
44775;DHT22;31340;51.402;0.016;2024-02-23T10:37:50;9.70;99.90
44775;DHT22;31340;51.402;0.016;2024-02-23T10:40:20;9.80;99.90
44775;DHT22;31340;51.402;0.016;2024-02-23T10:42:50;9.90;99.90
44775;DHT22;31340;51.402;0.016;2024-02-23T10:45:20;10.00;99.90
44775;DHT22;31340;51.402;0.016;2024-02-23T10:47:50;10.10;99.90
44775;DHT22;31340;51.402;0.016;2024-02-23T10:50:18;10.20;99.90
44775;DHT22;31340;51.402;0.016;2024-02-23T10:52:47;10.30;99.90
44775;DHT22;31340;51.402;0.016;2024-02-23T10:55:15;10.40;99.90
44775;DHT22;31340;51.402;0.016;2024-02-23T10:57:44;10.40;99.90
44775;DHT22;31340;51.402;0.016;2024-02-23T11:00:12;10.50;99.90
44775;DHT22;31340;51.402;0.016;2024-02-23T11:02:45;10.60;99.90
44775;DHT22;31340;51.402;0.016;2024-02-23T11:05:15;10.60;99.90
44775;DHT22;31340;51.402;0.016;2024-02-23T11:07:46;10.70;99.90
44775;DHT22;31340;51.402;0.016;2024-02-23T11:10:16;10.80;99.90
44775;DHT22;31340;51.402;0.016;2024-02-23T11:12:44;10.90;99.90
44775;DHT22;31340;51.402;0.016;2024-02-23T11:15:31;11.00;99.90
44775;DHT22;31340;51.402;0.016;2024-02-23T11:18:02;11.10;99.90
44775;DHT22;31340;51.402;0.016;2024-02-23T11:20:37;11.10;99.90
44775;DHT22;31340;51.402;0.016;2024-02-23T11:23:13;11.20;99.90
44775;DHT22;31340;51.402;0.016;2024-02-23T11:25:41;11.30;99.90
44775;DHT22;31340;51.402;0.016;2024-02-23T11:28:11;11.30;99.90
44775;DHT22;31340;51.402;0.016;2024-02-23T11:30:49;11.40;99.90
44775;DHT22;31340;51.402;0.016;2024-02-23T11:33:26;11.50;99.90
44775;DHT22;31340;51.402;0.016;2024-02-23T11:36:04;11.50;99.90
44775;DHT22;31340;51.402;0.016;2024-02-23T11:38:32;11.50;99.90
44775;DHT22;31340;51.402;0.016;2024-02-23T11:41:02;11.60;99.90
44775;DHT22;31340;51.402;0.016;2024-02-23T11:43:34;11.70;99.90
44775;DHT22;31340;51.402;0.016;2024-02-23T11:46:02;11.80;99.90
44775;DHT22;31340;51.402;0.016;2024-02-23T11:48:30;11.90;99.90
44775;DHT22;31340;51.402;0.016;2024-02-23T11:50:58;11.90;99.90
44775;DHT22;31340;51.402;0.016;2024-02-23T11:53:26;12.00;99.90
44775;DHT22;31340;51.402;0.016;2024-02-23T11:55:54;12.10;99.90
44775;DHT22;31340;51.402;0.016;2024-02-23T11:58:22;12.20;99.90
44775;DHT22;31340;51.402;0.016;2024-02-23T12:00:51;12.30;99.90
44775;DHT22;31340;51.402;0.016;2024-02-23T12:03:19;12.40;99.90
44775;DHT22;31340;51.402;0.016;2024-02-23T12:05:50;12.50;99.90
44775;DHT22;31340;51.402;0.016;2024-02-23T12:08:19;12.50;99.70
44775;DHT22;31340;51.402;0.016;2024-02-23T12:10:46;12.60;99.60
44775;DHT22;31340;51.402;0.016;2024-02-23T12:13:15;12.60;99.60
44775;DHT22;31340;51.402;0.016;2024-02-23T12:15:42;12.70;99.40
44775;DHT22;31340;51.402;0.016;2024-02-23T12:18:13;12.70;99.10
44775;DHT22;31340;51.402;0.016;2024-02-23T12:20:42;12.80;98.90
44775;DHT22;31340;51.402;0.016;2024-02-23T12:23:11;12.70;98.60
44775;DHT22;31340;51.402;0.016;2024-02-23T12:25:39;12.70;98.60
44775;DHT22;31340;51.402;0.016;2024-02-23T12:28:09;12.80;98.70
44775;DHT22;31340;51.402;0.016;2024-02-23T12:30:37;12.80;98.80
44775;DHT22;31340;51.402;0.016;2024-02-23T12:33:06;12.80;98.60
44775;DHT22;31340;51.402;0.016;2024-02-23T12:35:37;12.80;98.70
44775;DHT22;31340;51.402;0.016;2024-02-23T12:38:07;12.80;98.30
44775;DHT22;31340;51.402;0.016;2024-02-23T12:40:34;12.70;98.10
44775;DHT22;31340;51.402;0.016;2024-02-23T12:43:02;12.70;98.00
44775;DHT22;31340;51.402;0.016;2024-02-23T12:45:29;12.60;98.00
44775;DHT22;31340;51.402;0.016;2024-02-23T12:47:57;12.60;98.10
44775;DHT22;31340;51.402;0.016;2024-02-23T12:50:25;12.60;98.20
44775;DHT22;31340;51.402;0.016;2024-02-23T12:52:54;12.60;98.90
44775;DHT22;31340;51.402;0.016;2024-02-23T12:55:23;12.60;98.90
44775;DHT22;31340;51.402;0.016;2024-02-23T12:57:50;12.60;98.50
44775;DHT22;31340;51.402;0.016;2024-02-23T13:00:18;12.60;98.50
44775;DHT22;31340;51.402;0.016;2024-02-23T13:02:46;12.60;98.20
44775;DHT22;31340;51.402;0.016;2024-02-23T13:05:14;12.60;98.30
44775;DHT22;31340;51.402;0.016;2024-02-23T13:07:43;12.60;98.40
44775;DHT22;31340;51.402;0.016;2024-02-23T13:10:11;12.70;98.30
44775;DHT22;31340;51.402;0.016;2024-02-23T13:12:38;12.70;98.10
44775;DHT22;31340;51.402;0.016;2024-02-23T13:15:06;12.70;97.80
44775;DHT22;31340;51.402;0.016;2024-02-23T13:17:34;12.70;97.70
44775;DHT22;31340;51.402;0.016;2024-02-23T13:20:02;12.70;97.70
44775;DHT22;31340;51.402;0.016;2024-02-23T13:22:38;12.70;97.70
44775;DHT22;31340;51.402;0.016;2024-02-23T13:25:06;12.70;97.60
44775;DHT22;31340;51.402;0.016;2024-02-23T13:27:34;12.70;97.40
44775;DHT22;31340;51.402;0.016;2024-02-23T13:30:03;12.70;97.30
44775;DHT22;31340;51.402;0.016;2024-02-23T13:32:31;12.60;97.30
44775;DHT22;31340;51.402;0.016;2024-02-23T13:35:00;12.60;97.40
44775;DHT22;31340;51.402;0.016;2024-02-23T13:37:32;12.60;97.30
44775;DHT22;31340;51.402;0.016;2024-02-23T13:40:01;12.50;97.20
44775;DHT22;31340;51.402;0.016;2024-02-23T13:42:30;12.50;97.20
44775;DHT22;31340;51.402;0.016;2024-02-23T13:44:58;12.50;97.30
44775;DHT22;31340;51.402;0.016;2024-02-23T13:47:27;12.60;97.30
44775;DHT22;31340;51.402;0.016;2024-02-23T13:49:55;12.60;97.20
44775;DHT22;31340;51.402;0.016;2024-02-23T13:52:23;12.80;97.20
44775;DHT22;31340;51.402;0.016;2024-02-23T13:54:50;12.90;97.10
44775;DHT22;31340;51.402;0.016;2024-02-23T13:57:18;13.10;97.20
44775;DHT22;31340;51.402;0.016;2024-02-23T13:59:47;13.30;97.20
44775;DHT22;31340;51.402;0.016;2024-02-23T14:02:15;13.50;96.90
44775;DHT22;31340;51.402;0.016;2024-02-23T14:04:43;13.60;97.10
44775;DHT22;31340;51.402;0.016;2024-02-23T14:07:13;13.90;96.90
44775;DHT22;31340;51.402;0.016;2024-02-23T14:09:40;14.10;96.60
44775;DHT22;31340;51.402;0.016;2024-02-23T14:12:08;14.40;96.30
44775;DHT22;31340;51.402;0.016;2024-02-23T14:14:36;14.60;96.20
44775;DHT22;31340;51.402;0.016;2024-02-23T14:17:04;14.80;95.50
44775;DHT22;31340;51.402;0.016;2024-02-23T14:19:31;15.00;94.70
44775;DHT22;31340;51.402;0.016;2024-02-23T14:22:04;15.10;93.90
44775;DHT22;31340;51.402;0.016;2024-02-23T14:24:32;15.10;93.60
44775;DHT22;31340;51.402;0.016;2024-02-23T14:26:59;15.00;93.60
44775;DHT22;31340;51.402;0.016;2024-02-23T14:29:27;15.00;93.60
44775;DHT22;31340;51.402;0.016;2024-02-23T14:31:55;15.00;93.40
44775;DHT22;31340;51.402;0.016;2024-02-23T14:34:23;15.00;93.10
44775;DHT22;31340;51.402;0.016;2024-02-23T14:36:51;14.90;93.00
44775;DHT22;31340;51.402;0.016;2024-02-23T14:39:19;14.80;93.00
44775;DHT22;31340;51.402;0.016;2024-02-23T14:41:46;14.70;93.00
44775;DHT22;31340;51.402;0.016;2024-02-23T14:44:15;14.60;92.70
44775;DHT22;31340;51.402;0.016;2024-02-23T14:46:43;14.50;92.30
44775;DHT22;31340;51.402;0.016;2024-02-23T14:49:11;14.30;92.30
44775;DHT22;31340;51.402;0.016;2024-02-23T14:51:39;14.10;92.50
44775;DHT22;31340;51.402;0.016;2024-02-23T14:54:14;13.90;92.60
44775;DHT22;31340;51.402;0.016;2024-02-23T14:56:42;13.70;92.70
44775;DHT22;31340;51.402;0.016;2024-02-23T14:59:09;13.60;92.90
44775;DHT22;31340;51.402;0.016;2024-02-23T15:01:37;13.40;93.00
44775;DHT22;31340;51.402;0.016;2024-02-23T15:04:05;13.30;93.00
44775;DHT22;31340;51.402;0.016;2024-02-23T15:06:34;13.20;93.00
44775;DHT22;31340;51.402;0.016;2024-02-23T15:09:05;13.00;93.50
44775;DHT22;31340;51.402;0.016;2024-02-23T15:11:32;12.90;93.60
44775;DHT22;31340;51.402;0.016;2024-02-23T15:14:00;12.80;93.40
44775;DHT22;31340;51.402;0.016;2024-02-23T15:16:28;12.70;93.40
44775;DHT22;31340;51.402;0.016;2024-02-23T15:18:58;12.60;93.60
44775;DHT22;31340;51.402;0.016;2024-02-23T15:21:27;12.50;94.00
44775;DHT22;31340;51.402;0.016;2024-02-23T15:23:54;12.40;94.00
44775;DHT22;31340;51.402;0.016;2024-02-23T15:26:23;12.30;94.10
44775;DHT22;31340;51.402;0.016;2024-02-23T15:28:51;12.20;94.00
44775;DHT22;31340;51.402;0.016;2024-02-23T15:31:20;12.10;94.80
44775;DHT22;31340;51.402;0.016;2024-02-23T15:33:49;12.00;95.80
44775;DHT22;31340;51.402;0.016;2024-02-23T15:36:17;11.90;95.70
44775;DHT22;31340;51.402;0.016;2024-02-23T15:38:45;11.80;95.50
44775;DHT22;31340;51.402;0.016;2024-02-23T15:41:13;11.70;95.60
44775;DHT22;31340;51.402;0.016;2024-02-23T15:43:40;11.50;95.70
44775;DHT22;31340;51.402;0.016;2024-02-23T15:46:08;11.30;95.80
44775;DHT22;31340;51.402;0.016;2024-02-23T15:48:36;11.20;96.10